sensor_id;sensor_type;location;lat;lon;timestamp;P1;durP1;ratioP1;P2;durP2;ratioP2
46230;SDS011;31949;51.404;-0.038;2023-03-23T00:02:28;23.48;;;5.65;;
46230;SDS011;31949;51.404;-0.038;2023-03-23T00:04:58;18.65;;;5.22;;
46230;SDS011;31949;51.404;-0.038;2023-03-23T00:07:26;21.13;;;5.55;;
46230;SDS011;31949;51.404;-0.038;2023-03-23T00:09:53;22.90;;;5.07;;
46230;SDS011;31949;51.404;-0.038;2023-03-23T00:12:22;18.52;;;5.38;;
46230;SDS011;31949;51.404;-0.038;2023-03-23T00:15:02;31.08;;;6.97;;
46230;SDS011;31949;51.404;-0.038;2023-03-23T00:17:30;22.58;;;5.22;;
46230;SDS011;31949;51.404;-0.038;2023-03-23T00:20:00;19.35;;;4.65;;
46230;SDS011;31949;51.404;-0.038;2023-03-23T00:22:29;24.38;;;5.00;;
46230;SDS011;31949;51.404;-0.038;2023-03-23T00:24:55;29.85;;;5.28;;
46230;SDS011;31949;51.404;-0.038;2023-03-23T00:27:22;19.90;;;5.50;;
46230;SDS011;31949;51.404;-0.038;2023-03-23T00:29:51;17.95;;;4.28;;
46230;SDS011;31949;51.404;-0.038;2023-03-23T00:32:18;19.55;;;4.32;;
46230;SDS011;31949;51.404;-0.038;2023-03-23T00:34:46;17.98;;;4.70;;
46230;SDS011;31949;51.404;-0.038;2023-03-23T00:37:14;15.13;;;4.55;;
46230;SDS011;31949;51.404;-0.038;2023-03-23T00:39:44;21.33;;;5.20;;
46230;SDS011;31949;51.404;-0.038;2023-03-23T00:42:12;18.92;;;5.72;;
46230;SDS011;31949;51.404;-0.038;2023-03-23T00:44:40;18.38;;;4.10;;
46230;SDS011;31949;51.404;-0.038;2023-03-23T00:47:06;17.35;;;4.47;;
46230;SDS011;31949;51.404;-0.038;2023-03-23T00:49:37;16.92;;;5.28;;
46230;SDS011;31949;51.404;-0.038;2023-03-23T00:52:04;17.60;;;6.05;;
46230;SDS011;31949;51.404;-0.038;2023-03-23T00:54:32;19.00;;;5.45;;
46230;SDS011;31949;51.404;-0.038;2023-03-23T00:56:59;20.80;;;4.95;;
46230;SDS011;31949;51.404;-0.038;2023-03-23T00:59:25;24.60;;;5.07;;
46230;SDS011;31949;51.404;-0.038;2023-03-23T01:01:51;17.48;;;4.05;;
46230;SDS011;31949;51.404;-0.038;2023-03-23T01:04:18;18.42;;;5.78;;
46230;SDS011;31949;51.404;-0.038;2023-03-23T01:06:50;23.90;;;4.97;;
46230;SDS011;31949;51.404;-0.038;2023-03-23T01:09:17;22.63;;;5.45;;
46230;SDS011;31949;51.404;-0.038;2023-03-23T01:11:48;24.60;;;5.07;;
46230;SDS011;31949;51.404;-0.038;2023-03-23T01:14:16;22.20;;;4.63;;
46230;SDS011;31949;51.404;-0.038;2023-03-23T01:16:44;27.85;;;5.78;;
46230;SDS011;31949;51.404;-0.038;2023-03-23T01:19:11;17.20;;;4.03;;
46230;SDS011;31949;51.404;-0.038;2023-03-23T01:21:37;19.42;;;5.40;;
46230;SDS011;31949;51.404;-0.038;2023-03-23T01:24:05;19.40;;;5.03;;
46230;SDS011;31949;51.404;-0.038;2023-03-23T01:26:31;27.30;;;5.60;;
46230;SDS011;31949;51.404;-0.038;2023-03-23T01:28:57;17.67;;;4.95;;
46230;SDS011;31949;51.404;-0.038;2023-03-23T01:31:25;22.27;;;5.95;;
46230;SDS011;31949;51.404;-0.038;2023-03-23T01:33:52;14.85;;;4.15;;
46230;SDS011;31949;51.404;-0.038;2023-03-23T01:36:21;20.88;;;5.45;;
46230;SDS011;31949;51.404;-0.038;2023-03-23T01:39:01;19.95;;;5.45;;
46230;SDS011;31949;51.404;-0.038;2023-03-23T01:41:30;21.20;;;5.03;;
46230;SDS011;31949;51.404;-0.038;2023-03-23T01:44:03;26.92;;;6.72;;
46230;SDS011;31949;51.404;-0.038;2023-03-23T01:46:57;27.13;;;5.72;;
46230;SDS011;31949;51.404;-0.038;2023-03-23T01:49:24;27.25;;;5.95;;
46230;SDS011;31949;51.404;-0.038;2023-03-23T01:52:02;22.02;;;4.93;;
46230;SDS011;31949;51.404;-0.038;2023-03-23T01:54:35;24.58;;;5.95;;
46230;SDS011;31949;51.404;-0.038;2023-03-23T01:57:09;21.60;;;4.57;;
46230;SDS011;31949;51.404;-0.038;2023-03-23T01:59:40;22.98;;;5.00;;
46230;SDS011;31949;51.404;-0.038;2023-03-23T02:02:20;20.02;;;5.22;;
46230;SDS011;31949;51.404;-0.038;2023-03-23T02:04:48;30.13;;;5.57;;
46230;SDS011;31949;51.404;-0.038;2023-03-23T02:07:15;17.75;;;4.10;;
46230;SDS011;31949;51.404;-0.038;2023-03-23T02:09:45;19.75;;;5.07;;
46230;SDS011;31949;51.404;-0.038;2023-03-23T02:12:11;22.60;;;5.05;;
46230;SDS011;31949;51.404;-0.038;2023-03-23T02:14:38;15.00;;;5.00;;
46230;SDS011;31949;51.404;-0.038;2023-03-23T02:24:06;18.85;;;4.70;;
46230;SDS011;31949;51.404;-0.038;2023-03-23T02:29:02;20.05;;;5.80;;
46230;SDS011;31949;51.404;-0.038;2023-03-23T02:37:08;18.50;;;5.22;;
46230;SDS011;31949;51.404;-0.038;2023-03-23T02:39:45;18.58;;;4.47;;
46230;SDS011;31949;51.404;-0.038;2023-03-23T02:42:29;26.33;;;4.78;;
46230;SDS011;31949;51.404;-0.038;2023-03-23T02:44:58;22.77;;;5.20;;
46230;SDS011;31949;51.404;-0.038;2023-03-23T02:47:29;18.45;;;4.72;;
46230;SDS011;31949;51.404;-0.038;2023-03-23T02:49:56;12.05;;;3.83;;
46230;SDS011;31949;51.404;-0.038;2023-03-23T02:52:26;21.80;;;5.57;;
46230;SDS011;31949;51.404;-0.038;2023-03-23T02:54:54;20.98;;;4.63;;
46230;SDS011;31949;51.404;-0.038;2023-03-23T02:57:23;25.48;;;5.07;;
46230;SDS011;31949;51.404;-0.038;2023-03-23T02:59:53;24.42;;;5.32;;
46230;SDS011;31949;51.404;-0.038;2023-03-23T03:02:23;20.33;;;4.80;;
46230;SDS011;31949;51.404;-0.038;2023-03-23T03:10:37;22.92;;;5.75;;
46230;SDS011;31949;51.404;-0.038;2023-03-23T03:13:16;21.90;;;5.68;;
46230;SDS011;31949;51.404;-0.038;2023-03-23T03:15:51;23.77;;;6.05;;
46230;SDS011;31949;51.404;-0.038;2023-03-23T03:18:28;27.67;;;4.80;;
46230;SDS011;31949;51.404;-0.038;2023-03-23T03:21:20;25.83;;;6.15;;
46230;SDS011;31949;51.404;-0.038;2023-03-23T03:23:57;17.10;;;5.43;;
46230;SDS011;31949;51.404;-0.038;2023-03-23T03:26:27;26.23;;;5.63;;
46230;SDS011;31949;51.404;-0.038;2023-03-23T03:29:05;16.95;;;4.57;;
46230;SDS011;31949;51.404;-0.038;2023-03-23T03:34:04;21.85;;;5.13;;
46230;SDS011;31949;51.404;-0.038;2023-03-23T03:36:36;27.65;;;4.63;;
46230;SDS011;31949;51.404;-0.038;2023-03-23T03:39:07;15.40;;;4.32;;
46230;SDS011;31949;51.404;-0.038;2023-03-23T03:41:36;22.10;;;5.68;;
46230;SDS011;31949;51.404;-0.038;2023-03-23T03:44:03;23.35;;;5.25;;
46230;SDS011;31949;51.404;-0.038;2023-03-23T03:46:31;24.58;;;4.53;;
46230;SDS011;31949;51.404;-0.038;2023-03-23T03:48:58;22.13;;;4.63;;
46230;SDS011;31949;51.404;-0.038;2023-03-23T03:51:26;19.00;;;5.60;;
46230;SDS011;31949;51.404;-0.038;2023-03-23T03:53:54;21.15;;;4.68;;
46230;SDS011;31949;51.404;-0.038;2023-03-23T03:56:22;21.10;;;4.45;;
46230;SDS011;31949;51.404;-0.038;2023-03-23T03:59:00;17.65;;;4.28;;
46230;SDS011;31949;51.404;-0.038;2023-03-23T04:01:56;26.70;;;6.03;;
46230;SDS011;31949;51.404;-0.038;2023-03-23T04:04:22;21.10;;;5.80;;
46230;SDS011;31949;51.404;-0.038;2023-03-23T04:06:49;20.27;;;5.85;;
46230;SDS011;31949;51.404;-0.038;2023-03-23T04:09:15;30.17;;;6.55;;
46230;SDS011;31949;51.404;-0.038;2023-03-23T04:11:42;21.85;;;5.93;;
46230;SDS011;31949;51.404;-0.038;2023-03-23T04:14:43;30.27;;;5.55;;
46230;SDS011;31949;51.404;-0.038;2023-03-23T04:17:09;25.77;;;5.40;;
46230;SDS011;31949;51.404;-0.038;2023-03-23T04:19:36;29.02;;;4.88;;
46230;SDS011;31949;51.404;-0.038;2023-03-23T04:22:05;16.88;;;4.82;;
46230;SDS011;31949;51.404;-0.038;2023-03-23T04:24:34;23.52;;;5.75;;
46230;SDS011;31949;51.404;-0.038;2023-03-23T04:27:04;25.65;;;5.20;;
46230;SDS011;31949;51.404;-0.038;2023-03-23T04:29:31;25.42;;;5.32;;
46230;SDS011;31949;51.404;-0.038;2023-03-23T04:32:34;22.45;;;4.68;;
46230;SDS011;31949;51.404;-0.038;2023-03-23T04:35:01;21.00;;;4.32;;
46230;SDS011;31949;51.404;-0.038;2023-03-23T04:37:37;14.70;;;4.38;;
46230;SDS011;31949;51.404;-0.038;2023-03-23T04:40:05;19.00;;;4.80;;
46230;SDS011;31949;51.404;-0.038;2023-03-23T04:42:36;25.38;;;5.40;;
46230;SDS011;31949;51.404;-0.038;2023-03-23T04:45:26;14.55;;;4.00;;
46230;SDS011;31949;51.404;-0.038;2023-03-23T04:47:54;19.73;;;4.97;;
46230;SDS011;31949;51.404;-0.038;2023-03-23T04:50:32;21.10;;;5.97;;
46230;SDS011;31949;51.404;-0.038;2023-03-23T04:53:08;16.75;;;3.67;;
46230;SDS011;31949;51.404;-0.038;2023-03-23T04:55:35;23.30;;;4.78;;
46230;SDS011;31949;51.404;-0.038;2023-03-23T04:58:06;19.10;;;5.00;;
46230;SDS011;31949;51.404;-0.038;2023-03-23T05:00:52;22.08;;;4.97;;
46230;SDS011;31949;51.404;-0.038;2023-03-23T05:03:20;22.77;;;7.45;;
46230;SDS011;31949;51.404;-0.038;2023-03-23T05:05:50;27.00;;;6.45;;
46230;SDS011;31949;51.404;-0.038;2023-03-23T05:08:19;19.27;;;5.43;;
46230;SDS011;31949;51.404;-0.038;2023-03-23T05:10:50;24.77;;;4.97;;
46230;SDS011;31949;51.404;-0.038;2023-03-23T05:13:17;16.80;;;5.60;;
46230;SDS011;31949;51.404;-0.038;2023-03-23T05:15:47;25.33;;;5.88;;
46230;SDS011;31949;51.404;-0.038;2023-03-23T05:18:14;20.42;;;5.13;;
46230;SDS011;31949;51.404;-0.038;2023-03-23T05:20:41;26.20;;;5.93;;
46230;SDS011;31949;51.404;-0.038;2023-03-23T05:25:40;31.95;;;6.03;;
46230;SDS011;31949;51.404;-0.038;2023-03-23T05:28:13;19.17;;;4.45;;
46230;SDS011;31949;51.404;-0.038;2023-03-23T05:31:02;18.92;;;4.65;;
46230;SDS011;31949;51.404;-0.038;2023-03-23T05:33:31;27.17;;;5.32;;
46230;SDS011;31949;51.404;-0.038;2023-03-23T05:36:09;19.27;;;5.40;;
46230;SDS011;31949;51.404;-0.038;2023-03-23T05:38:56;35.75;;;7.82;;
46230;SDS011;31949;51.404;-0.038;2023-03-23T05:41:24;30.52;;;6.25;;
46230;SDS011;31949;51.404;-0.038;2023-03-23T05:43:51;29.83;;;6.15;;
46230;SDS011;31949;51.404;-0.038;2023-03-23T05:46:33;24.55;;;7.10;;
46230;SDS011;31949;51.404;-0.038;2023-03-23T05:49:01;32.60;;;6.35;;
46230;SDS011;31949;51.404;-0.038;2023-03-23T05:51:34;24.98;;;5.47;;
46230;SDS011;31949;51.404;-0.038;2023-03-23T05:54:01;34.22;;;6.30;;
46230;SDS011;31949;51.404;-0.038;2023-03-23T05:56:29;23.02;;;5.78;;
46230;SDS011;31949;51.404;-0.038;2023-03-23T05:59:14;21.65;;;5.00;;
46230;SDS011;31949;51.404;-0.038;2023-03-23T06:01:44;26.65;;;6.07;;
46230;SDS011;31949;51.404;-0.038;2023-03-23T06:04:10;30.92;;;6.55;;
46230;SDS011;31949;51.404;-0.038;2023-03-23T06:06:51;25.55;;;5.57;;
46230;SDS011;31949;51.404;-0.038;2023-03-23T06:09:17;20.63;;;5.18;;
46230;SDS011;31949;51.404;-0.038;2023-03-23T06:12:13;15.75;;;4.55;;
46230;SDS011;31949;51.404;-0.038;2023-03-23T06:14:49;24.83;;;6.22;;
46230;SDS011;31949;51.404;-0.038;2023-03-23T06:17:23;33.35;;;7.65;;
46230;SDS011;31949;51.404;-0.038;2023-03-23T06:19:52;25.65;;;5.43;;
46230;SDS011;31949;51.404;-0.038;2023-03-23T06:22:19;17.85;;;4.93;;
46230;SDS011;31949;51.404;-0.038;2023-03-23T06:24:48;20.02;;;5.30;;
46230;SDS011;31949;51.404;-0.038;2023-03-23T06:27:19;22.98;;;4.60;;
46230;SDS011;31949;51.404;-0.038;2023-03-23T06:29:45;18.05;;;4.53;;
46230;SDS011;31949;51.404;-0.038;2023-03-23T06:32:12;26.00;;;4.97;;
46230;SDS011;31949;51.404;-0.038;2023-03-23T06:34:41;23.08;;;4.88;;
46230;SDS011;31949;51.404;-0.038;2023-03-23T06:37:30;24.92;;;4.00;;
46230;SDS011;31949;51.404;-0.038;2023-03-23T06:40:12;17.70;;;5.13;;
46230;SDS011;31949;51.404;-0.038;2023-03-23T06:42:40;19.63;;;4.78;;
46230;SDS011;31949;51.404;-0.038;2023-03-23T06:45:25;17.52;;;3.55;;
46230;SDS011;31949;51.404;-0.038;2023-03-23T06:48:05;14.90;;;3.20;;
46230;SDS011;31949;51.404;-0.038;2023-03-23T06:50:32;20.73;;;7.07;;
46230;SDS011;31949;51.404;-0.038;2023-03-23T06:53:00;22.25;;;4.38;;
46230;SDS011;31949;51.404;-0.038;2023-03-23T06:55:26;21.63;;;5.07;;
46230;SDS011;31949;51.404;-0.038;2023-03-23T06:57:53;17.13;;;3.78;;
46230;SDS011;31949;51.404;-0.038;2023-03-23T07:00:19;25.58;;;5.97;;
46230;SDS011;31949;51.404;-0.038;2023-03-23T07:02:46;22.73;;;5.20;;
46230;SDS011;31949;51.404;-0.038;2023-03-23T07:05:12;20.15;;;5.47;;
46230;SDS011;31949;51.404;-0.038;2023-03-23T07:07:40;24.85;;;6.20;;
46230;SDS011;31949;51.404;-0.038;2023-03-23T07:10:16;26.55;;;5.80;;
46230;SDS011;31949;51.404;-0.038;2023-03-23T07:12:43;24.58;;;6.03;;
46230;SDS011;31949;51.404;-0.038;2023-03-23T07:15:10;23.50;;;5.13;;
46230;SDS011;31949;51.404;-0.038;2023-03-23T07:17:39;24.23;;;6.90;;
46230;SDS011;31949;51.404;-0.038;2023-03-23T07:20:32;25.83;;;5.10;;
46230;SDS011;31949;51.404;-0.038;2023-03-23T07:22:58;27.20;;;6.50;;
46230;SDS011;31949;51.404;-0.038;2023-03-23T07:25:41;21.73;;;4.45;;
46230;SDS011;31949;51.404;-0.038;2023-03-23T07:28:11;25.30;;;6.05;;
46230;SDS011;31949;51.404;-0.038;2023-03-23T07:30:38;23.85;;;6.15;;
46230;SDS011;31949;51.404;-0.038;2023-03-23T07:33:05;27.33;;;5.43;;
46230;SDS011;31949;51.404;-0.038;2023-03-23T07:35:32;31.25;;;6.53;;
46230;SDS011;31949;51.404;-0.038;2023-03-23T07:38:03;29.95;;;7.22;;
46230;SDS011;31949;51.404;-0.038;2023-03-23T07:40:32;30.63;;;5.78;;
46230;SDS011;31949;51.404;-0.038;2023-03-23T07:43:04;23.00;;;4.88;;
46230;SDS011;31949;51.404;-0.038;2023-03-23T07:45:58;24.38;;;7.07;;
46230;SDS011;31949;51.404;-0.038;2023-03-23T07:48:37;24.73;;;6.60;;
46230;SDS011;31949;51.404;-0.038;2023-03-23T07:51:04;29.77;;;7.70;;
46230;SDS011;31949;51.404;-0.038;2023-03-23T07:53:31;33.13;;;6.47;;
46230;SDS011;31949;51.404;-0.038;2023-03-23T07:56:21;22.50;;;5.85;;
46230;SDS011;31949;51.404;-0.038;2023-03-23T07:58:48;34.22;;;7.18;;
46230;SDS011;31949;51.404;-0.038;2023-03-23T08:01:15;26.35;;;6.45;;
46230;SDS011;31949;51.404;-0.038;2023-03-23T08:03:51;30.15;;;7.55;;
46230;SDS011;31949;51.404;-0.038;2023-03-23T08:06:35;26.63;;;6.32;;
46230;SDS011;31949;51.404;-0.038;2023-03-23T08:09:30;22.00;;;5.38;;
46230;SDS011;31949;51.404;-0.038;2023-03-23T08:12:26;21.73;;;4.95;;
46230;SDS011;31949;51.404;-0.038;2023-03-23T08:15:22;21.25;;;6.18;;
46230;SDS011;31949;51.404;-0.038;2023-03-23T08:18:07;28.90;;;7.22;;
46230;SDS011;31949;51.404;-0.038;2023-03-23T08:20:52;28.23;;;6.82;;
46230;SDS011;31949;51.404;-0.038;2023-03-23T08:23:57;25.23;;;6.20;;
46230;SDS011;31949;51.404;-0.038;2023-03-23T08:26:41;26.55;;;5.13;;
46230;SDS011;31949;51.404;-0.038;2023-03-23T08:29:26;32.00;;;7.05;;
46230;SDS011;31949;51.404;-0.038;2023-03-23T08:32:18;26.45;;;6.97;;
46230;SDS011;31949;51.404;-0.038;2023-03-23T08:35:05;24.42;;;5.82;;
46230;SDS011;31949;51.404;-0.038;2023-03-23T08:38:02;21.13;;;4.65;;
46230;SDS011;31949;51.404;-0.038;2023-03-23T08:40:47;20.73;;;5.85;;
46230;SDS011;31949;51.404;-0.038;2023-03-23T08:43:32;30.00;;;6.25;;
46230;SDS011;31949;51.404;-0.038;2023-03-23T08:46:22;22.58;;;5.45;;
46230;SDS011;31949;51.404;-0.038;2023-03-23T08:49:15;19.83;;;5.55;;
46230;SDS011;31949;51.404;-0.038;2023-03-23T08:51:53;21.08;;;5.57;;
46230;SDS011;31949;51.404;-0.038;2023-03-23T08:54:46;25.05;;;5.45;;
46230;SDS011;31949;51.404;-0.038;2023-03-23T08:57:47;21.58;;;6.50;;
46230;SDS011;31949;51.404;-0.038;2023-03-23T09:00:33;21.85;;;6.35;;
46230;SDS011;31949;51.404;-0.038;2023-03-23T09:03:12;24.27;;;5.80;;
46230;SDS011;31949;51.404;-0.038;2023-03-23T09:06:02;21.65;;;5.95;;
46230;SDS011;31949;51.404;-0.038;2023-03-23T09:08:42;18.30;;;5.13;;
46230;SDS011;31949;51.404;-0.038;2023-03-23T09:11:10;22.40;;;6.15;;
46230;SDS011;31949;51.404;-0.038;2023-03-23T09:13:36;17.65;;;4.45;;
46230;SDS011;31949;51.404;-0.038;2023-03-23T09:16:04;24.30;;;6.30;;
46230;SDS011;31949;51.404;-0.038;2023-03-23T09:18:31;27.27;;;6.22;;
46230;SDS011;31949;51.404;-0.038;2023-03-23T09:20:59;18.27;;;5.10;;
46230;SDS011;31949;51.404;-0.038;2023-03-23T09:23:25;17.35;;;5.05;;
46230;SDS011;31949;51.404;-0.038;2023-03-23T09:25:52;24.13;;;4.88;;
46230;SDS011;31949;51.404;-0.038;2023-03-23T09:28:18;20.80;;;5.05;;
46230;SDS011;31949;51.404;-0.038;2023-03-23T09:30:45;23.23;;;5.78;;
46230;SDS011;31949;51.404;-0.038;2023-03-23T09:33:13;18.05;;;4.78;;
46230;SDS011;31949;51.404;-0.038;2023-03-23T09:35:40;24.48;;;4.75;;
46230;SDS011;31949;51.404;-0.038;2023-03-23T09:38:08;21.98;;;5.85;;
46230;SDS011;31949;51.404;-0.038;2023-03-23T09:40:48;13.50;;;3.95;;
46230;SDS011;31949;51.404;-0.038;2023-03-23T09:43:20;16.05;;;4.20;;
46230;SDS011;31949;51.404;-0.038;2023-03-23T09:48:56;17.02;;;5.18;;
46230;SDS011;31949;51.404;-0.038;2023-03-23T09:51:40;21.25;;;5.47;;
46230;SDS011;31949;51.404;-0.038;2023-03-23T09:56:43;22.02;;;4.88;;
46230;SDS011;31949;51.404;-0.038;2023-03-23T10:02:40;18.13;;;5.47;;
46230;SDS011;31949;51.404;-0.038;2023-03-23T10:05:00;19.73;;;5.68;;
46230;SDS011;31949;51.404;-0.038;2023-03-23T10:07:49;21.17;;;4.13;;
46230;SDS011;31949;51.404;-0.038;2023-03-23T10:10:15;23.27;;;6.05;;
46230;SDS011;31949;51.404;-0.038;2023-03-23T10:12:45;26.08;;;6.00;;
46230;SDS011;31949;51.404;-0.038;2023-03-23T10:15:17;26.02;;;5.32;;
46230;SDS011;31949;51.404;-0.038;2023-03-23T10:20:18;23.95;;;6.07;;
46230;SDS011;31949;51.404;-0.038;2023-03-23T10:23:00;17.83;;;5.07;;
46230;SDS011;31949;51.404;-0.038;2023-03-23T10:25:52;22.63;;;5.03;;
46230;SDS011;31949;51.404;-0.038;2023-03-23T10:28:42;20.50;;;5.00;;
46230;SDS011;31949;51.404;-0.038;2023-03-23T10:31:11;17.10;;;4.72;;
46230;SDS011;31949;51.404;-0.038;2023-03-23T10:33:42;21.30;;;5.70;;
46230;SDS011;31949;51.404;-0.038;2023-03-23T10:38:44;18.17;;;4.88;;
46230;SDS011;31949;51.404;-0.038;2023-03-23T10:41:23;10.32;;;3.03;;
46230;SDS011;31949;51.404;-0.038;2023-03-23T10:43:49;10.88;;;2.70;;
46230;SDS011;31949;51.404;-0.038;2023-03-23T10:46:22;16.55;;;3.25;;
46230;SDS011;31949;51.404;-0.038;2023-03-23T10:49:08;11.02;;;3.08;;
46230;SDS011;31949;51.404;-0.038;2023-03-23T10:51:41;11.10;;;3.40;;
46230;SDS011;31949;51.404;-0.038;2023-03-23T10:54:11;13.35;;;3.45;;
46230;SDS011;31949;51.404;-0.038;2023-03-23T10:56:39;12.18;;;3.13;;
46230;SDS011;31949;51.404;-0.038;2023-03-23T10:59:30;16.70;;;3.33;;
46230;SDS011;31949;51.404;-0.038;2023-03-23T11:02:00;17.65;;;3.75;;
46230;SDS011;31949;51.404;-0.038;2023-03-23T11:04:29;16.83;;;4.63;;
46230;SDS011;31949;51.404;-0.038;2023-03-23T11:07:00;16.00;;;4.68;;
46230;SDS011;31949;51.404;-0.038;2023-03-23T11:09:38;13.48;;;3.42;;
46230;SDS011;31949;51.404;-0.038;2023-03-23T11:12:17;12.70;;;3.65;;
46230;SDS011;31949;51.404;-0.038;2023-03-23T11:14:44;15.20;;;4.05;;
46230;SDS011;31949;51.404;-0.038;2023-03-23T11:17:24;18.77;;;4.75;;
46230;SDS011;31949;51.404;-0.038;2023-03-23T11:19:52;18.85;;;4.95;;
46230;SDS011;31949;51.404;-0.038;2023-03-23T11:22:34;20.67;;;5.35;;
46230;SDS011;31949;51.404;-0.038;2023-03-23T11:25:03;27.00;;;4.78;;
46230;SDS011;31949;51.404;-0.038;2023-03-23T11:27:31;15.27;;;4.57;;
46230;SDS011;31949;51.404;-0.038;2023-03-23T11:30:00;19.60;;;5.30;;
46230;SDS011;31949;51.404;-0.038;2023-03-23T11:32:34;19.50;;;5.97;;
46230;SDS011;31949;51.404;-0.038;2023-03-23T11:35:03;21.25;;;4.63;;
46230;SDS011;31949;51.404;-0.038;2023-03-23T11:56:25;16.42;;;5.70;;
46230;SDS011;31949;51.404;-0.038;2023-03-23T11:59:02;15.73;;;4.40;;
46230;SDS011;31949;51.404;-0.038;2023-03-23T12:07:50;18.92;;;5.05;;
46230;SDS011;31949;51.404;-0.038;2023-03-23T12:15:36;21.60;;;5.70;;
46230;SDS011;31949;51.404;-0.038;2023-03-23T12:45:14;25.50;;;6.25;;
46230;SDS011;31949;51.404;-0.038;2023-03-23T12:50:36;18.75;;;5.50;;
46230;SDS011;31949;51.404;-0.038;2023-03-23T12:55:44;19.58;;;5.47;;
46230;SDS011;31949;51.404;-0.038;2023-03-23T12:58:19;23.00;;;5.85;;
46230;SDS011;31949;51.404;-0.038;2023-03-23T13:01:11;17.38;;;5.30;;
46230;SDS011;31949;51.404;-0.038;2023-03-23T13:06:32;17.13;;;6.30;;
46230;SDS011;31949;51.404;-0.038;2023-03-23T13:09:04;21.63;;;5.80;;
46230;SDS011;31949;51.404;-0.038;2023-03-23T13:11:53;19.73;;;5.82;;
46230;SDS011;31949;51.404;-0.038;2023-03-23T13:25:15;25.85;;;6.75;;
46230;SDS011;31949;51.404;-0.038;2023-03-23T13:27:55;25.08;;;6.28;;
46230;SDS011;31949;51.404;-0.038;2023-03-23T13:30:24;20.83;;;5.68;;
46230;SDS011;31949;51.404;-0.038;2023-03-23T13:32:50;19.20;;;5.55;;
46230;SDS011;31949;51.404;-0.038;2023-03-23T13:35:18;27.70;;;6.28;;
46230;SDS011;31949;51.404;-0.038;2023-03-23T13:37:48;23.27;;;6.88;;
46230;SDS011;31949;51.404;-0.038;2023-03-23T13:40:27;24.15;;;5.75;;
46230;SDS011;31949;51.404;-0.038;2023-03-23T13:42:56;19.67;;;5.72;;
46230;SDS011;31949;51.404;-0.038;2023-03-23T13:48:05;24.75;;;5.88;;
46230;SDS011;31949;51.404;-0.038;2023-03-23T13:53:30;21.10;;;6.40;;
46230;SDS011;31949;51.404;-0.038;2023-03-23T13:56:16;17.00;;;6.13;;
46230;SDS011;31949;51.404;-0.038;2023-03-23T13:59:07;18.77;;;5.07;;
46230;SDS011;31949;51.404;-0.038;2023-03-23T14:01:39;20.15;;;6.20;;
46230;SDS011;31949;51.404;-0.038;2023-03-23T14:04:12;22.08;;;5.68;;
46230;SDS011;31949;51.404;-0.038;2023-03-23T14:06:41;25.02;;;5.20;;
46230;SDS011;31949;51.404;-0.038;2023-03-23T14:09:33;18.08;;;4.53;;
46230;SDS011;31949;51.404;-0.038;2023-03-23T14:12:05;21.73;;;4.95;;
46230;SDS011;31949;51.404;-0.038;2023-03-23T14:14:41;24.50;;;6.03;;
46230;SDS011;31949;51.404;-0.038;2023-03-23T14:17:18;24.45;;;6.82;;
46230;SDS011;31949;51.404;-0.038;2023-03-23T14:19:50;24.65;;;5.75;;
46230;SDS011;31949;51.404;-0.038;2023-03-23T14:22:23;22.92;;;6.22;;
46230;SDS011;31949;51.404;-0.038;2023-03-23T14:24:51;29.63;;;6.75;;
46230;SDS011;31949;51.404;-0.038;2023-03-23T14:27:20;18.17;;;5.15;;
46230;SDS011;31949;51.404;-0.038;2023-03-23T14:30:06;20.30;;;5.38;;
46230;SDS011;31949;51.404;-0.038;2023-03-23T14:32:39;18.83;;;4.97;;
46230;SDS011;31949;51.404;-0.038;2023-03-23T14:35:13;20.30;;;5.80;;
46230;SDS011;31949;51.404;-0.038;2023-03-23T14:37:40;21.65;;;5.82;;
46230;SDS011;31949;51.404;-0.038;2023-03-23T14:40:08;20.85;;;5.45;;
46230;SDS011;31949;51.404;-0.038;2023-03-23T14:42:40;27.70;;;6.70;;
46230;SDS011;31949;51.404;-0.038;2023-03-23T14:45:07;22.75;;;6.80;;
46230;SDS011;31949;51.404;-0.038;2023-03-23T14:47:44;27.65;;;6.97;;
46230;SDS011;31949;51.404;-0.038;2023-03-23T14:50:23;29.63;;;6.68;;
46230;SDS011;31949;51.404;-0.038;2023-03-23T14:53:03;26.42;;;7.43;;
46230;SDS011;31949;51.404;-0.038;2023-03-23T14:55:52;26.67;;;7.13;;
46230;SDS011;31949;51.404;-0.038;2023-03-23T14:58:21;24.17;;;7.30;;
46230;SDS011;31949;51.404;-0.038;2023-03-23T15:03:24;28.92;;;7.60;;
46230;SDS011;31949;51.404;-0.038;2023-03-23T15:05:54;27.35;;;7.15;;
46230;SDS011;31949;51.404;-0.038;2023-03-23T15:08:27;29.55;;;6.88;;
46230;SDS011;31949;51.404;-0.038;2023-03-23T15:11:03;33.15;;;6.20;;
46230;SDS011;31949;51.404;-0.038;2023-03-23T15:13:54;21.27;;;6.20;;
46230;SDS011;31949;51.404;-0.038;2023-03-23T15:16:30;30.23;;;6.68;;
46230;SDS011;31949;51.404;-0.038;2023-03-23T15:19:02;28.60;;;7.78;;
46230;SDS011;31949;51.404;-0.038;2023-03-23T15:21:47;27.83;;;6.43;;
46230;SDS011;31949;51.404;-0.038;2023-03-23T15:24:34;26.08;;;6.88;;
46230;SDS011;31949;51.404;-0.038;2023-03-23T15:27:10;21.30;;;6.80;;
46230;SDS011;31949;51.404;-0.038;2023-03-23T15:29:47;31.70;;;7.43;;
46230;SDS011;31949;51.404;-0.038;2023-03-23T15:32:28;28.27;;;7.22;;
46230;SDS011;31949;51.404;-0.038;2023-03-23T15:35:10;22.58;;;5.72;;
46230;SDS011;31949;51.404;-0.038;2023-03-23T15:37:47;30.83;;;6.07;;
46230;SDS011;31949;51.404;-0.038;2023-03-23T15:40:17;23.45;;;6.97;;
46230;SDS011;31949;51.404;-0.038;2023-03-23T15:42:46;27.58;;;5.38;;
46230;SDS011;31949;51.404;-0.038;2023-03-23T15:50:13;30.15;;;6.50;;
46230;SDS011;31949;51.404;-0.038;2023-03-23T15:52:40;18.38;;;4.90;;
46230;SDS011;31949;51.404;-0.038;2023-03-23T15:58:08;19.13;;;4.90;;
46230;SDS011;31949;51.404;-0.038;2023-03-23T16:00:38;16.27;;;5.10;;
46230;SDS011;31949;51.404;-0.038;2023-03-23T16:03:07;20.52;;;4.93;;
46230;SDS011;31949;51.404;-0.038;2023-03-23T16:05:39;20.35;;;5.38;;
46230;SDS011;31949;51.404;-0.038;2023-03-23T16:08:08;17.92;;;4.60;;
46230;SDS011;31949;51.404;-0.038;2023-03-23T16:10:37;30.08;;;6.82;;
46230;SDS011;31949;51.404;-0.038;2023-03-23T16:13:05;18.80;;;5.40;;
46230;SDS011;31949;51.404;-0.038;2023-03-23T16:15:33;21.63;;;6.05;;
46230;SDS011;31949;51.404;-0.038;2023-03-23T16:18:00;22.23;;;6.47;;
46230;SDS011;31949;51.404;-0.038;2023-03-23T16:20:28;16.73;;;5.38;;
46230;SDS011;31949;51.404;-0.038;2023-03-23T16:22:56;20.48;;;5.35;;
46230;SDS011;31949;51.404;-0.038;2023-03-23T16:25:23;16.30;;;4.65;;
46230;SDS011;31949;51.404;-0.038;2023-03-23T16:27:51;15.77;;;4.22;;
46230;SDS011;31949;51.404;-0.038;2023-03-23T16:30:23;12.82;;;3.88;;
46230;SDS011;31949;51.404;-0.038;2023-03-23T16:32:52;13.98;;;4.13;;
46230;SDS011;31949;51.404;-0.038;2023-03-23T16:35:23;10.27;;;3.30;;
46230;SDS011;31949;51.404;-0.038;2023-03-23T16:37:54;11.10;;;3.33;;
46230;SDS011;31949;51.404;-0.038;2023-03-23T16:40:35;9.63;;;3.40;;
46230;SDS011;31949;51.404;-0.038;2023-03-23T16:43:03;15.68;;;3.10;;
46230;SDS011;31949;51.404;-0.038;2023-03-23T16:45:38;11.18;;;3.28;;
46230;SDS011;31949;51.404;-0.038;2023-03-23T16:48:10;12.73;;;2.67;;
46230;SDS011;31949;51.404;-0.038;2023-03-23T16:50:39;7.88;;;3.03;;
46230;SDS011;31949;51.404;-0.038;2023-03-23T16:53:08;8.57;;;2.15;;
46230;SDS011;31949;51.404;-0.038;2023-03-23T16:55:36;5.53;;;2.10;;
46230;SDS011;31949;51.404;-0.038;2023-03-23T16:58:04;8.65;;;2.13;;
46230;SDS011;31949;51.404;-0.038;2023-03-23T17:00:44;7.97;;;2.58;;
46230;SDS011;31949;51.404;-0.038;2023-03-23T17:03:14;6.35;;;2.03;;
46230;SDS011;31949;51.404;-0.038;2023-03-23T17:05:43;8.82;;;2.33;;
46230;SDS011;31949;51.404;-0.038;2023-03-23T17:08:12;7.90;;;2.65;;
46230;SDS011;31949;51.404;-0.038;2023-03-23T17:10:39;6.78;;;2.05;;